sensor_id;sensor_type;location;lat;lon;timestamp;pressure;altitude;pressure_sealevel;temperature
77414;BMP280;66486;49.992;19.164;2022-12-29T12:11:42;98621.66;;;10.61
77414;BMP280;66486;49.992;19.164;2022-12-29T12:14:19;98622.94;;;10.73
77414;BMP280;66486;49.992;19.164;2022-12-29T12:16:55;98617.94;;;10.55
77414;BMP280;66486;49.992;19.164;2022-12-29T12:19:42;98622.16;;;10.72
77414;BMP280;66486;49.992;19.164;2022-12-29T12:22:17;98614.34;;;10.61
77414;BMP280;66486;49.992;19.164;2022-12-29T12:30:39;98628.69;;;10.55
77414;BMP280;66486;49.992;19.164;2022-12-29T12:33:27;98632.31;;;10.64
77414;BMP280;66486;49.992;19.164;2022-12-29T12:36:14;98627.94;;;10.54
77414;BMP280;66486;49.992;19.164;2022-12-29T12:38:55;98627.25;;;10.50
77414;BMP280;66486;49.992;19.164;2022-12-29T12:50:12;98631.63;;;10.25
77414;BMP280;66486;49.992;19.164;2022-12-29T12:58:32;98612.53;;;10.19
77414;BMP280;66486;49.992;19.164;2022-12-29T13:04:00;98627.22;;;10.15
77414;BMP280;66486;49.992;19.164;2022-12-29T13:12:34;98626.59;;;10.27
77414;BMP280;66486;49.992;19.164;2022-12-29T13:17:54;98618.63;;;10.39
77414;BMP280;66486;49.992;19.164;2022-12-29T13:20:31;98596.38;;;10.39
77414;BMP280;66486;49.992;19.164;2022-12-29T13:23:17;98608.22;;;10.41
77414;BMP280;66486;49.992;19.164;2022-12-29T13:37:10;98599.28;;;10.09
77414;BMP280;66486;49.992;19.164;2022-12-29T13:39:42;98604.00;;;9.85
77414;BMP280;66486;49.992;19.164;2022-12-29T13:42:11;98610.56;;;9.80
77414;BMP280;66486;49.992;19.164;2022-12-29T13:44:44;98616.03;;;9.77
77414;BMP280;66486;49.992;19.164;2022-12-29T13:49:40;98619.59;;;9.70
77414;BMP280;66486;49.992;19.164;2022-12-29T13:52:16;98629.22;;;9.68
77414;BMP280;66486;49.992;19.164;2022-12-29T13:55:21;98621.22;;;9.64
77414;BMP280;66486;49.992;19.164;2022-12-29T13:58:09;98615.22;;;9.57
77414;BMP280;66486;49.992;19.164;2022-12-29T14:06:22;98614.81;;;9.58
77414;BMP280;66486;49.992;19.164;2022-12-29T14:08:57;98607.91;;;9.57
77414;BMP280;66486;49.992;19.164;2022-12-29T14:11:36;98603.50;;;9.47
77414;BMP280;66486;49.992;19.164;2022-12-29T14:14:25;98623.94;;;9.61
77414;BMP280;66486;49.992;19.164;2022-12-29T14:16:54;98618.72;;;9.54
77414;BMP280;66486;49.992;19.164;2022-12-29T14:19:30;98607.28;;;9.50
77414;BMP280;66486;49.992;19.164;2022-12-29T14:22:02;98611.16;;;9.49
77414;BMP280;66486;49.992;19.164;2022-12-29T14:29:49;98615.63;;;9.32
77414;BMP280;66486;49.992;19.164;2022-12-29T14:34:57;98602.00;;;9.23
77414;BMP280;66486;49.992;19.164;2022-12-29T14:42:40;98600.50;;;9.18
77414;BMP280;66486;49.992;19.164;2022-12-29T14:45:08;98597.94;;;9.11
77414;BMP280;66486;49.992;19.164;2022-12-29T14:47:50;98598.38;;;9.06
77414;BMP280;66486;49.992;19.164;2022-12-29T14:50:33;98607.31;;;9.00
77414;BMP280;66486;49.992;19.164;2022-12-29T14:53:04;98596.22;;;8.98
77414;BMP280;66486;49.992;19.164;2022-12-29T14:55:43;98611.63;;;8.94
77414;BMP280;66486;49.992;19.164;2022-12-29T14:58:31;98611.97;;;8.96
77414;BMP280;66486;49.992;19.164;2022-12-29T15:01:00;98594.88;;;8.86
77414;BMP280;66486;49.992;19.164;2022-12-29T15:03:44;98607.19;;;8.80
77414;BMP280;66486;49.992;19.164;2022-12-29T15:06:13;98608.34;;;8.83
77414;BMP280;66486;49.992;19.164;2022-12-29T15:09:01;98610.25;;;8.82
77414;BMP280;66486;49.992;19.164;2022-12-29T15:14:02;98605.84;;;8.68
77414;BMP280;66486;49.992;19.164;2022-12-29T15:16:33;98603.28;;;8.58
77414;BMP280;66486;49.992;19.164;2022-12-29T15:19:02;98598.38;;;8.53
77414;BMP280;66486;49.992;19.164;2022-12-29T15:21:35;98604.09;;;8.55
77414;BMP280;66486;49.992;19.164;2022-12-29T15:24:05;98606.19;;;8.40
77414;BMP280;66486;49.992;19.164;2022-12-29T15:26:42;98596.34;;;8.30
77414;BMP280;66486;49.992;19.164;2022-12-29T15:29:35;98596.00;;;8.28
77414;BMP280;66486;49.992;19.164;2022-12-29T15:32:16;98592.78;;;8.06
77414;BMP280;66486;49.992;19.164;2022-12-29T15:34:45;98597.53;;;7.95
77414;BMP280;66486;49.992;19.164;2022-12-29T15:37:23;98608.38;;;7.81
77414;BMP280;66486;49.992;19.164;2022-12-29T15:39:50;98602.53;;;7.49
77414;BMP280;66486;49.992;19.164;2022-12-29T15:43:21;98619.47;;;7.39
77414;BMP280;66486;49.992;19.164;2022-12-29T15:45:32;98613.69;;;7.44
77414;BMP280;66486;49.992;19.164;2022-12-29T15:47:58;98607.34;;;7.20
77414;BMP280;66486;49.992;19.164;2022-12-29T15:52:53;98604.97;;;6.74
77414;BMP280;66486;49.992;19.164;2022-12-29T15:55:34;98601.97;;;6.65
77414;BMP280;66486;49.992;19.164;2022-12-29T15:58:03;98606.59;;;6.51
77414;BMP280;66486;49.992;19.164;2022-12-29T16:00:35;98599.78;;;6.28
77414;BMP280;66486;49.992;19.164;2022-12-29T16:03:05;98601.72;;;6.24
77414;BMP280;66486;49.992;19.164;2022-12-29T16:05:34;98601.69;;;6.35
77414;BMP280;66486;49.992;19.164;2022-12-29T16:08:00;98601.69;;;6.35
77414;BMP280;66486;49.992;19.164;2022-12-29T16:10:39;98596.28;;;6.49
77414;BMP280;66486;49.992;19.164;2022-12-29T16:13:30;98595.53;;;6.42
77414;BMP280;66486;49.992;19.164;2022-12-29T16:16:06;98602.03;;;6.48
77414;BMP280;66486;49.992;19.164;2022-12-29T16:18:35;98609.31;;;6.36
77414;BMP280;66486;49.992;19.164;2022-12-29T16:21:04;98608.22;;;6.20
77414;BMP280;66486;49.992;19.164;2022-12-29T16:23:31;98614.72;;;6.22
77414;BMP280;66486;49.992;19.164;2022-12-29T16:25:58;98612.00;;;6.40
77414;BMP280;66486;49.992;19.164;2022-12-29T16:28:47;98628.75;;;6.44
77414;BMP280;66486;49.992;19.164;2022-12-29T16:31:32;98621.16;;;6.35
77414;BMP280;66486;49.992;19.164;2022-12-29T16:34:21;98610.56;;;5.97
77414;BMP280;66486;49.992;19.164;2022-12-29T16:39:31;98631.94;;;5.97
77414;BMP280;66486;49.992;19.164;2022-12-29T16:41:58;98620.81;;;6.02
77414;BMP280;66486;49.992;19.164;2022-12-29T16:44:27;98626.56;;;6.07
77414;BMP280;66486;49.992;19.164;2022-12-29T16:49:30;98617.38;;;6.19
77414;BMP280;66486;49.992;19.164;2022-12-29T16:51:57;98633.75;;;6.28
77414;BMP280;66486;49.992;19.164;2022-12-29T16:54:26;98622.28;;;6.38
77414;BMP280;66486;49.992;19.164;2022-12-29T16:56:54;98609.59;;;6.56
77414;BMP280;66486;49.992;19.164;2022-12-29T17:01:56;98613.69;;;6.82
77414;BMP280;66486;49.992;19.164;2022-12-29T17:04:22;98616.03;;;6.76
77414;BMP280;66486;49.992;19.164;2022-12-29T17:06:49;98617.47;;;6.91
77414;BMP280;66486;49.992;19.164;2022-12-29T17:09:23;98616.34;;;6.82
77414;BMP280;66486;49.992;19.164;2022-12-29T17:11:54;98626.56;;;7.05
77414;BMP280;66486;49.992;19.164;2022-12-29T17:17:31;98627.44;;;6.87
77414;BMP280;66486;49.992;19.164;2022-12-29T17:19:57;98614.88;;;6.77
77414;BMP280;66486;49.992;19.164;2022-12-29T17:22:26;98611.13;;;6.64
77414;BMP280;66486;49.992;19.164;2022-12-29T17:24:54;98621.44;;;6.62
77414;BMP280;66486;49.992;19.164;2022-12-29T17:29:58;98635.88;;;6.75
77414;BMP280;66486;49.992;19.164;2022-12-29T17:32:26;98629.34;;;6.87
77414;BMP280;66486;49.992;19.164;2022-12-29T17:34:52;98626.66;;;6.83
77414;BMP280;66486;49.992;19.164;2022-12-29T17:39:50;98611.81;;;6.75
77414;BMP280;66486;49.992;19.164;2022-12-29T17:42:19;98618.69;;;6.76
77414;BMP280;66486;49.992;19.164;2022-12-29T17:44:45;98607.66;;;6.74
77414;BMP280;66486;49.992;19.164;2022-12-29T17:47:12;98616.81;;;6.73
77414;BMP280;66486;49.992;19.164;2022-12-29T17:49:40;98619.09;;;6.71
77414;BMP280;66486;49.992;19.164;2022-12-29T17:52:15;98614.91;;;6.70
77414;BMP280;66486;49.992;19.164;2022-12-29T17:54:45;98618.38;;;6.57
77414;BMP280;66486;49.992;19.164;2022-12-29T17:57:14;98622.63;;;6.51
77414;BMP280;66486;49.992;19.164;2022-12-29T17:59:41;98628.34;;;6.46
77414;BMP280;66486;49.992;19.164;2022-12-29T18:02:28;98622.28;;;6.45
77414;BMP280;66486;49.992;19.164;2022-12-29T18:04:56;98613.91;;;6.32
77414;BMP280;66486;49.992;19.164;2022-12-29T18:07:26;98623.41;;;6.44
77414;BMP280;66486;49.992;19.164;2022-12-29T18:09:53;98626.13;;;6.37
77414;BMP280;66486;49.992;19.164;2022-12-29T18:14:57;98640.59;;;6.40
77414;BMP280;66486;49.992;19.164;2022-12-29T18:17:23;98635.22;;;6.50
77414;BMP280;66486;49.992;19.164;2022-12-29T18:19:49;98625.31;;;6.51
77414;BMP280;66486;49.992;19.164;2022-12-29T18:22:20;98625.31;;;6.47
77414;BMP280;66486;49.992;19.164;2022-12-29T18:24:47;98641.28;;;6.54
77414;BMP280;66486;49.992;19.164;2022-12-29T18:27:14;98637.50;;;6.55
77414;BMP280;66486;49.992;19.164;2022-12-29T18:29:42;98630.59;;;6.54
77414;BMP280;66486;49.992;19.164;2022-12-29T18:32:12;98629.47;;;6.62
77414;BMP280;66486;49.992;19.164;2022-12-29T18:34:42;98627.09;;;6.71
77414;BMP280;66486;49.992;19.164;2022-12-29T18:37:08;98627.56;;;6.59
77414;BMP280;66486;49.992;19.164;2022-12-29T18:39:35;98622.59;;;6.58
77414;BMP280;66486;49.992;19.164;2022-12-29T18:42:05;98615.28;;;6.72
77414;BMP280;66486;49.992;19.164;2022-12-29T18:44:32;98609.22;;;6.61
77414;BMP280;66486;49.992;19.164;2022-12-29T18:46:59;98604.56;;;6.72
77414;BMP280;66486;49.992;19.164;2022-12-29T18:49:26;98593.13;;;6.72
77414;BMP280;66486;49.992;19.164;2022-12-29T18:51:51;98598.38;;;6.86
77414;BMP280;66486;49.992;19.164;2022-12-29T18:54:31;98598.69;;;7.02
77414;BMP280;66486;49.992;19.164;2022-12-29T18:56:58;98593.75;;;6.97
77414;BMP280;66486;49.992;19.164;2022-12-29T18:59:24;98592.31;;;6.85
77414;BMP280;66486;49.992;19.164;2022-12-29T19:01:51;98594.25;;;6.78
77414;BMP280;66486;49.992;19.164;2022-12-29T19:04:17;98597.41;;;6.59
77414;BMP280;66486;49.992;19.164;2022-12-29T19:06:43;98603.56;;;6.49
77414;BMP280;66486;49.992;19.164;2022-12-29T19:09:10;98611.19;;;6.50
77414;BMP280;66486;49.992;19.164;2022-12-29T19:11:36;98615.38;;;6.51
77414;BMP280;66486;49.992;19.164;2022-12-29T19:14:02;98622.56;;;6.65
77414;BMP280;66486;49.992;19.164;2022-12-29T19:16:29;98620.34;;;6.49
77414;BMP280;66486;49.992;19.164;2022-12-29T19:18:55;98614.97;;;6.60
77414;BMP280;66486;49.992;19.164;2022-12-29T19:21:21;98619.59;;;6.45
77414;BMP280;66486;49.992;19.164;2022-12-29T19:23:48;98623.41;;;6.44
77414;BMP280;66486;49.992;19.164;2022-12-29T19:26:28;98616.22;;;6.34
77414;BMP280;66486;49.992;19.164;2022-12-29T19:28:55;98640.16;;;6.59
77414;BMP280;66486;49.992;19.164;2022-12-29T19:31:21;98638.66;;;6.51
77414;BMP280;66486;49.992;19.164;2022-12-29T19:33:47;98635.63;;;6.49
77414;BMP280;66486;49.992;19.164;2022-12-29T19:36:13;98631.38;;;6.58
77414;BMP280;66486;49.992;19.164;2022-12-29T19:38:43;98647.41;;;6.62
77414;BMP280;66486;49.992;19.164;2022-12-29T19:41:11;98641.69;;;6.53
77414;BMP280;66486;49.992;19.164;2022-12-29T19:43:38;98645.84;;;6.64
77414;BMP280;66486;49.992;19.164;2022-12-29T19:46:09;98649.66;;;6.67
77414;BMP280;66486;49.992;19.164;2022-12-29T19:48:36;98645.06;;;6.67
77414;BMP280;66486;49.992;19.164;2022-12-29T19:51:07;98653.78;;;6.82
77414;BMP280;66486;49.992;19.164;2022-12-29T19:53:35;98647.75;;;6.71
77414;BMP280;66486;49.992;19.164;2022-12-29T19:56:03;98645.78;;;6.78
77414;BMP280;66486;49.992;19.164;2022-12-29T19:58:31;98650.41;;;6.78
77414;BMP280;66486;49.992;19.164;2022-12-29T20:01:06;98644.72;;;6.65
77414;BMP280;66486;49.992;19.164;2022-12-29T20:03:33;98642.47;;;6.53
77414;BMP280;66486;49.992;19.164;2022-12-29T20:06:00;98641.66;;;6.56
77414;BMP280;66486;49.992;19.164;2022-12-29T20:08:26;98645.53;;;6.52
77414;BMP280;66486;49.992;19.164;2022-12-29T20:11:04;98640.53;;;6.57
77414;BMP280;66486;49.992;19.164;2022-12-29T20:13:32;98645.88;;;6.61
77414;BMP280;66486;49.992;19.164;2022-12-29T20:16:04;98648.88;;;6.70
77414;BMP280;66486;49.992;19.164;2022-12-29T20:18:34;98652.63;;;6.83
77414;BMP280;66486;49.992;19.164;2022-12-29T20:21:09;98646.50;;;6.86
77414;BMP280;66486;49.992;19.164;2022-12-29T20:23:38;98647.63;;;6.95
77414;BMP280;66486;49.992;19.164;2022-12-29T20:26:04;98647.97;;;6.97
77414;BMP280;66486;49.992;19.164;2022-12-29T20:28:34;98646.13;;;6.91
77414;BMP280;66486;49.992;19.164;2022-12-29T20:31:03;98654.91;;;6.91
77414;BMP280;66486;49.992;19.164;2022-12-29T20:33:32;98649.94;;;6.90
77414;BMP280;66486;49.992;19.164;2022-12-29T20:36:07;98647.28;;;6.86
77414;BMP280;66486;49.992;19.164;2022-12-29T20:38:34;98638.06;;;6.98
77414;BMP280;66486;49.992;19.164;2022-12-29T20:41:00;98652.56;;;6.93
77414;BMP280;66486;49.992;19.164;2022-12-29T20:43:27;98670.50;;;6.96
77414;BMP280;66486;49.992;19.164;2022-12-29T20:45:53;98665.56;;;6.95
77414;BMP280;66486;49.992;19.164;2022-12-29T20:48:19;98654.16;;;6.91
77414;BMP280;66486;49.992;19.164;2022-12-29T20:50:45;98656.06;;;6.90
77414;BMP280;66486;49.992;19.164;2022-12-29T20:53:11;98641.56;;;6.84
77414;BMP280;66486;49.992;19.164;2022-12-29T20:55:38;98657.22;;;6.86
77414;BMP280;66486;49.992;19.164;2022-12-29T20:58:04;98653.06;;;6.78
77414;BMP280;66486;49.992;19.164;2022-12-29T21:00:31;98650.78;;;6.73
77414;BMP280;66486;49.992;19.164;2022-12-29T21:02:58;98648.94;;;6.56
77414;BMP280;66486;49.992;19.164;2022-12-29T21:05:25;98652.41;;;6.42
77414;BMP280;66486;49.992;19.164;2022-12-29T21:07:52;98644.34;;;6.56
77414;BMP280;66486;49.992;19.164;2022-12-29T21:10:19;98642.88;;;6.48
77414;BMP280;66486;49.992;19.164;2022-12-29T21:12:46;98645.59;;;6.38
77414;BMP280;66486;49.992;19.164;2022-12-29T21:15:12;98645.19;;;6.39
77414;BMP280;66486;49.992;19.164;2022-12-29T21:17:42;98647.53;;;6.26
77414;BMP280;66486;49.992;19.164;2022-12-29T21:20:08;98653.25;;;6.25
77414;BMP280;66486;49.992;19.164;2022-12-29T21:22:34;98655.13;;;6.28
77414;BMP280;66486;49.992;19.164;2022-12-29T21:25:00;98658.22;;;6.05
77414;BMP280;66486;49.992;19.164;2022-12-29T21:27:26;98660.16;;;6.12
77414;BMP280;66486;49.992;19.164;2022-12-29T21:29:52;98661.25;;;6.14
77414;BMP280;66486;49.992;19.164;2022-12-29T21:32:18;98647.53;;;6.19
77414;BMP280;66486;49.992;19.164;2022-12-29T21:34:45;98658.22;;;6.09
77414;BMP280;66486;49.992;19.164;2022-12-29T21:37:11;98658.94;;;6.20
77414;BMP280;66486;49.992;19.164;2022-12-29T21:39:37;98662.41;;;6.03
77414;BMP280;66486;49.992;19.164;2022-12-29T21:42:03;98647.94;;;5.97
77414;BMP280;66486;49.992;19.164;2022-12-29T21:44:29;98660.53;;;5.96
77414;BMP280;66486;49.992;19.164;2022-12-29T21:47:14;98661.66;;;5.92
77414;BMP280;66486;49.992;19.164;2022-12-29T21:49:40;98665.09;;;5.89
77414;BMP280;66486;49.992;19.164;2022-12-29T21:52:06;98662.78;;;5.87
77414;BMP280;66486;49.992;19.164;2022-12-29T21:54:32;98667.00;;;5.81
77414;BMP280;66486;49.992;19.164;2022-12-29T21:57:17;98662.81;;;5.80
77414;BMP280;66486;49.992;19.164;2022-12-29T22:00:07;98665.13;;;5.67
77414;BMP280;66486;49.992;19.164;2022-12-29T22:02:52;98642.59;;;5.54
77414;BMP280;66486;49.992;19.164;2022-12-29T22:05:36;98667.38;;;5.76
77414;BMP280;66486;49.992;19.164;2022-12-29T22:08:21;98657.84;;;5.50
77414;BMP280;66486;49.992;19.164;2022-12-29T22:11:07;98660.13;;;5.48
77414;BMP280;66486;49.992;19.164;2022-12-29T22:13:52;98651.34;;;5.44
77414;BMP280;66486;49.992;19.164;2022-12-29T22:16:22;98663.94;;;5.54
77414;BMP280;66486;49.992;19.164;2022-12-29T22:18:49;98643.38;;;5.55
77414;BMP280;66486;49.992;19.164;2022-12-29T22:21:15;98665.88;;;5.64
77414;BMP280;66486;49.992;19.164;2022-12-29T22:23:42;98666.22;;;5.56
77414;BMP280;66486;49.992;19.164;2022-12-29T22:26:09;98666.59;;;5.51
77414;BMP280;66486;49.992;19.164;2022-12-29T22:28:41;98678.44;;;5.50
77414;BMP280;66486;49.992;19.164;2022-12-29T22:31:26;98678.00;;;5.41
77414;BMP280;66486;49.992;19.164;2022-12-29T22:33:57;98670.41;;;5.39
77414;BMP280;66486;49.992;19.164;2022-12-29T22:36:24;98658.56;;;5.40
77414;BMP280;66486;49.992;19.164;2022-12-29T22:38:50;98673.47;;;5.52
77414;BMP280;66486;49.992;19.164;2022-12-29T22:41:17;98670.44;;;5.60
77414;BMP280;66486;49.992;19.164;2022-12-29T22:43:44;98650.59;;;5.37
77414;BMP280;66486;49.992;19.164;2022-12-29T22:46:10;98675.78;;;5.53
77414;BMP280;66486;49.992;19.164;2022-12-29T22:48:36;98662.03;;;5.48
77414;BMP280;66486;49.992;19.164;2022-12-29T22:51:03;98686.44;;;5.57
77414;BMP280;66486;49.992;19.164;2022-12-29T22:53:29;98679.97;;;5.68
77414;BMP280;66486;49.992;19.164;2022-12-29T22:56:21;98681.50;;;5.76
77414;BMP280;66486;49.992;19.164;2022-12-29T22:58:48;98680.34;;;5.63
77414;BMP280;66486;49.992;19.164;2022-12-29T23:01:15;98681.88;;;5.71
77414;BMP280;66486;49.992;19.164;2022-12-29T23:03:42;98682.63;;;5.68
77414;BMP280;66486;49.992;19.164;2022-12-29T23:06:11;98694.44;;;5.46
77414;BMP280;66486;49.992;19.164;2022-12-29T23:08:38;98700.50;;;5.36
77414;BMP280;66486;49.992;19.164;2022-12-29T23:11:07;98690.22;;;5.38
77414;BMP280;66486;49.992;19.164;2022-12-29T23:13:34;98684.13;;;5.34
77414;BMP280;66486;49.992;19.164;2022-12-29T23:16:00;98663.53;;;5.31
77414;BMP280;66486;49.992;19.164;2022-12-29T23:18:26;98664.25;;;5.21
77414;BMP280;66486;49.992;19.164;2022-12-29T23:20:52;98664.97;;;5.04
77414;BMP280;66486;49.992;19.164;2022-12-29T23:23:18;98663.44;;;5.03
77414;BMP280;66486;49.992;19.164;2022-12-29T23:26:03;98671.78;;;4.91
77414;BMP280;66486;49.992;19.164;2022-12-29T23:28:29;98665.69;;;4.87
77414;BMP280;66486;49.992;19.164;2022-12-29T23:30:55;98671.84;;;5.05
77414;BMP280;66486;49.992;19.164;2022-12-29T23:33:21;98677.59;;;5.21
77414;BMP280;66486;49.992;19.164;2022-12-29T23:35:47;98692.06;;;5.13
77414;BMP280;66486;49.992;19.164;2022-12-29T23:38:13;98679.47;;;5.06
77414;BMP280;66486;49.992;19.164;2022-12-29T23:40:39;98679.44;;;5.03
77414;BMP280;66486;49.992;19.164;2022-12-29T23:43:06;98674.50;;;5.01
77414;BMP280;66486;49.992;19.164;2022-12-29T23:45:35;98660.38;;;4.97
77414;BMP280;66486;49.992;19.164;2022-12-29T23:48:02;98656.22;;;5.00
77414;BMP280;66486;49.992;19.164;2022-12-29T23:50:28;98663.84;;;5.08
77414;BMP280;66486;49.992;19.164;2022-12-29T23:52:54;98664.22;;;5.03
77414;BMP280;66486;49.992;19.164;2022-12-29T23:55:20;98676.84;;;5.17
77414;BMP280;66486;49.992;19.164;2022-12-29T23:57:46;98673.78;;;5.15
